Time;durP1;ratioP1;P1;durP2;ratioP2;P2;SDS_P1;SDS_P2;PMS_P1;PMS_P2;Temp;Humidity;BMP_temperature;BMP_pressure;BME280_temperature;BME280_humidity;BME280_pressure;Samples;Min_cycle;Max_cycle;Signal;HPM_P1;HPM_P2
2021/06/03 00:02:04;;;;;;;9.32;3.30;;;;;;;15.78;74.41;97056.47;4983473;28;20142;-62
2021/06/03 00:04:29;;;;;;;4.50;3.28;;;;;;;15.73;74.61;97057.59;4982880;28;20042;-61
2021/06/03 00:06:55;;;;;;;4.45;3.05;;;;;;;15.67;75.25;97056.41;4970070;28;20119;-59
2021/06/03 00:09:21;;;;;;;6.15;3.47;;;;;;;15.62;75.03;97059.53;4975334;28;20057;-61
2021/06/03 00:11:46;;;;;;;4.60;3.13;;;;;;;15.54;75.58;97058.75;4983734;28;20053;-60
2021/06/03 00:14:12;;;;;;;7.28;3.60;;;;;;;15.49;76.33;97061.88;4978737;28;20070;-61
2021/06/03 00:16:38;;;;;;;8.93;3.88;;;;;;;15.50;76.18;97068.97;4979928;28;20433;-60
2021/06/03 00:19:06;;;;;;;4.25;3.03;;;;;;;15.56;76.04;97063.88;4977738;28;20042;-60
2021/06/03 00:21:32;;;;;;;6.90;3.08;;;;;;;15.63;75.74;97063.91;4976087;28;20050;-58
2021/06/03 00:23:58;;;;;;;6.15;2.72;;;;;;;15.70;75.37;97063.91;4983668;28;20088;-60
2021/06/03 00:26:23;;;;;;;11.88;5.53;;;;;;;15.88;75.38;97065.94;4978721;28;20082;-61
2021/06/03 00:28:49;;;;;;;12.40;4.35;;;;;;;16.00;74.34;97068.31;4983073;28;20085;-62
2021/06/03 00:31:14;;;;;;;4.07;3.20;;;;;;;16.08;74.54;97069.91;4974318;28;20054;-60
2021/06/03 00:33:40;;;;;;;6.50;3.10;;;;;;;16.12;73.55;97067.94;4965742;28;20047;-61
2021/06/03 00:36:07;;;;;;;6.25;3.97;;;;;;;15.99;74.55;97070.28;4960857;28;20039;-60
2021/06/03 00:38:33;;;;;;;6.72;3.03;;;;;;;15.85;75.82;97073.03;4981928;28;20070;-61
2021/06/03 00:40:58;;;;;;;5.00;3.03;;;;;;;15.85;75.72;97076.59;4982120;28;20054;-60
2021/06/03 00:43:23;;;;;;;4.97;2.80;;;;;;;15.96;75.80;97073.06;4976464;28;20141;-60
2021/06/03 00:45:49;;;;;;;5.88;2.90;;;;;;;16.12;75.47;97075.44;4982360;28;20623;-59
2021/06/03 00:48:14;;;;;;;4.15;2.88;;;;;;;16.24;74.79;97080.56;4960134;28;20126;-59
2021/06/03 00:50:43;;;;;;;3.85;2.72;;;;;;;16.31;74.27;97074.25;4974887;28;20046;-65
2021/06/03 00:53:11;;;;;;;5.10;3.27;;;;;;;16.40;73.96;97071.88;4971345;28;20035;-60
2021/06/03 00:55:39;;;;;;;4.43;2.92;;;;;;;16.40;73.53;97074.63;4963138;28;20693;-60
2021/06/03 00:58:07;;;;;;;6.05;2.67;;;;;;;16.38;73.45;97074.25;4957931;28;20130;-62
2021/06/03 01:00:33;;;;;;;6.43;3.20;;;;;;;16.27;73.64;97065.16;4974001;28;20042;-61
2021/06/03 01:02:59;;;;;;;4.00;3.00;;;;;;;16.20;73.01;97071.47;4967702;28;20129;-62
2021/06/03 01:05:48;;;;;;;5.40;3.05;;;;;;;16.21;73.76;97075.84;4970969;28;20061;-61
2021/06/03 01:08:18;;;;;;;;;;;;;;;16.30;73.93;97072.69;4978271;28;20050;-62
2021/06/03 01:10:53;;;;;;;3.70;2.40;;;;;;;16.32;73.89;97076.63;4979372;28;19918;-61
2021/06/03 01:13:52;;;;;;;3.90;2.60;;;;;;;16.31;73.24;97072.25;4973556;28;20030;-61
2021/06/03 01:16:19;;;;;;;3.97;2.58;;;;;;;16.28;73.17;97069.50;4977155;28;20496;-61
2021/06/03 01:18:46;;;;;;;4.72;2.85;;;;;;;16.24;73.58;97070.31;4981323;28;20145;-58
2021/06/03 01:21:26;;;;;;;4.40;2.75;;;;;;;16.24;74.02;97078.59;4968803;28;20129;-61
2021/06/03 01:24:15;;;;;;;3.95;2.67;;;;;;;16.17;73.78;97078.59;4979798;28;20047;-59
2021/06/03 01:26:42;;;;;;;6.07;3.40;;;;;;;16.03;74.35;97076.59;4973319;28;20038;-60
2021/06/03 01:29:08;;;;;;;6.47;3.08;;;;;;;15.92;76.28;97080.53;4976050;28;20393;-62
2021/06/03 01:31:33;;;;;;;4.70;3.13;;;;;;;15.85;77.17;97081.31;4980274;28;20035;-61
2021/06/03 01:33:59;;;;;;;6.10;3.15;;;;;;;15.63;78.25;97081.25;4979648;28;20042;-58
2021/06/03 01:36:25;;;;;;;4.63;3.83;;;;;;;15.37;78.94;97084.31;4967645;28;20692;-60
2021/06/03 01:38:50;;;;;;;6.85;3.13;;;;;;;15.33;78.67;97084.31;4977497;28;20049;-59
2021/06/03 01:41:16;;;;;;;7.38;3.55;;;;;;;15.37;78.27;97085.09;4969363;28;20073;-60
2021/06/03 01:43:45;;;;;;;4.57;3.25;;;;;;;15.45;78.07;97083.97;4978403;28;20436;-58
2021/06/03 01:46:11;;;;;;;6.60;3.97;;;;;;;15.60;78.20;97084.78;4957323;28;20504;-59
2021/06/03 01:48:36;;;;;;;6.82;3.22;;;;;;;15.68;77.11;97083.63;4962244;28;20094;-60
2021/06/03 01:51:07;;;;;;;8.38;3.15;;;;;;;15.80;77.30;97087.22;4961293;28;20039;-60
2021/06/03 01:53:33;;;;;;;4.32;2.90;;;;;;;15.88;77.14;97083.28;4961432;28;20039;-58
2021/06/03 01:56:02;;;;;;;5.65;3.72;;;;;;;15.71;77.97;97082.03;4967173;28;20077;-63
2021/06/03 01:58:27;;;;;;;5.50;4.18;;;;;;;15.30;80.13;97082.31;4979336;28;20054;-61
2021/06/03 02:00:53;;;;;;;7.40;3.53;;;;;;;15.20;80.25;97085.84;4975211;28;20417;-58
2021/06/03 02:03:24;;;;;;;6.22;3.72;;;;;;;15.20;80.45;97085.84;4973403;28;20108;-60
2021/06/03 02:05:49;;;;;;;5.65;4.03;;;;;;;15.23;80.14;97083.09;4980602;28;20042;-60
2021/06/03 02:08:15;;;;;;;6.28;3.33;;;;;;;15.24;79.99;97087.41;4975666;28;20114;-61
2021/06/03 02:10:41;;;;;;;5.32;3.17;;;;;;;15.35;80.11;97086.69;4974078;28;20038;-62
2021/06/03 02:13:13;;;;;;;4.75;3.63;;;;;;;15.45;80.15;97102.50;4974072;28;20070;-60
2021/06/03 02:15:46;;;;;;;5.30;3.47;;;;;;;15.51;79.44;97095.41;4977822;28;20038;-61
2021/06/03 02:18:13;;;;;;;4.30;2.97;;;;;;;15.54;79.40;97099.34;4971625;28;20050;-61
2021/06/03 02:20:42;;;;;;;6.63;3.58;;;;;;;15.45;80.31;97086.72;4973912;28;20066;-62
2021/06/03 02:23:10;;;;;;;4.85;3.10;;;;;;;15.46;80.41;97091.03;4976184;28;20062;-61
2021/06/03 02:25:36;;;;;;;4.00;2.90;;;;;;;15.49;80.53;97108.81;4973293;28;20038;-61
2021/06/03 02:28:03;;;;;;;4.88;3.30;;;;;;;15.49;80.18;97117.09;4980674;28;20450;-62
2021/06/03 02:30:31;;;;;;;4.15;2.88;;;;;;;15.48;80.14;97110.78;4979292;28;20042;-60
2021/06/03 02:32:59;;;;;;;6.00;3.20;;;;;;;15.44;80.60;97111.94;4967582;28;20065;-60
2021/06/03 02:35:25;;;;;;;7.60;3.53;;;;;;;15.36;80.34;97108.38;4961040;28;20054;-60
2021/06/03 02:37:50;;;;;;;4.95;3.22;;;;;;;15.35;80.50;97114.28;4962633;28;20034;-57
2021/06/03 02:40:20;;;;;;;4.40;2.75;;;;;;;15.42;80.37;97122.59;4966470;28;20077;-58
2021/06/03 02:42:47;;;;;;;4.97;2.90;;;;;;;15.43;80.05;97119.44;4978965;28;20121;-61
2021/06/03 02:45:17;;;;;;;4.32;3.08;;;;;;;15.53;80.03;97117.88;4976334;28;20412;-61
2021/06/03 02:47:43;;;;;;;10.18;6.68;;;;;;;15.56;80.19;97103.31;4978652;28;20043;-61
2021/06/03 02:50:10;;;;;;;7.18;4.28;;;;;;;15.57;79.62;97106.84;4975580;28;20042;-60
2021/06/03 02:52:37;;;;;;;5.07;3.85;;;;;;;15.66;80.14;97112.78;4984546;28;20058;-62
2021/06/03 02:55:05;;;;;;;3.75;2.63;;;;;;;15.63;79.53;97113.59;4981219;28;20138;-62
2021/06/03 02:57:31;;;;;;;4.22;3.20;;;;;;;15.63;79.68;97114.38;4988371;28;20053;-61
2021/06/03 02:59:56;;;;;;;7.63;4.00;;;;;;;15.50;78.76;97113.13;4985944;28;20101;-61
2021/06/03 03:02:22;;;;;;;4.82;3.30;;;;;;;15.29;80.19;97120.16;4975986;28;20061;-62
2021/06/03 03:04:47;;;;;;;5.38;3.33;;;;;;;15.17;81.29;97123.25;4970887;28;20063;-61
2021/06/03 03:07:13;;;;;;;6.03;3.75;;;;;;;15.03;82.47;97125.94;4958561;28;20137;-58
2021/06/03 03:09:38;;;;;;;8.43;3.50;;;;;;;14.84;nan;97116.78;4977634;28;20049;-59
2021/06/03 03:12:05;;;;;;;7.20;4.22;;;;;;;14.77;83.72;97126.97;4958828;28;20051;-62
2021/06/03 03:14:30;;;;;;;5.35;3.60;;;;;;;14.69;83.91;97129.69;4970540;28;20137;-61
2021/06/03 03:16:56;;;;;;;6.13;3.42;;;;;;;14.65;83.37;97130.81;4967140;28;20130;-61
2021/06/03 03:19:22;;;;;;;5.82;3.67;;;;;;;14.67;83.72;97122.97;4956824;28;20754;-60
2021/06/03 03:21:47;;;;;;;4.53;3.08;;;;;;;14.71;83.48;97124.56;4966774;28;20804;-61
2021/06/03 03:24:13;;;;;;;5.68;3.60;;;;;;;14.79;83.03;97130.13;4964615;28;20137;-60
2021/06/03 03:26:39;;;;;;;5.05;3.58;;;;;;;14.76;82.27;97128.13;4961356;28;20042;-61
2021/06/03 03:29:04;;;;;;;6.00;3.85;;;;;;;14.69;82.90;97126.94;4968880;28;20042;-62
2021/06/03 03:31:29;;;;;;;6.75;4.10;;;;;;;14.72;83.34;97123.38;4973388;28;20105;-60
2021/06/03 03:34:02;;;;;;;4.45;3.40;;;;;;;14.85;83.32;97131.34;4980396;28;20100;-59
2021/06/03 03:36:29;;;;;;;7.75;4.63;;;;;;;14.83;81.92;97133.69;4976784;28;20566;-57
2021/06/03 03:38:54;;;;;;;5.50;3.70;;;;;;;14.92;82.84;97131.38;4980081;28;20519;-60
2021/06/03 03:41:20;;;;;;;8.50;3.92;;;;;;;14.82;82.45;97138.44;4958190;28;20039;-58
2021/06/03 03:43:45;;;;;;;5.60;3.85;;;;;;;14.88;82.59;97136.88;4973826;28;20051;-59
2021/06/03 03:46:11;;;;;;;5.13;3.70;;;;;;;14.80;81.58;97139.97;4970523;28;20035;-61
2021/06/03 03:48:36;;;;;;;7.25;4.43;;;;;;;14.70;82.65;97149.78;4982571;28;20045;-60
2021/06/03 03:51:02;;;;;;;7.22;3.50;;;;;;;14.62;83.08;97150.88;4976609;28;20042;-61
2021/06/03 03:53:27;;;;;;;4.32;3.45;;;;;;;14.66;83.00;97146.97;4961274;28;20039;-59
2021/06/03 03:55:53;;;;;;;5.60;3.83;;;;;;;14.48;83.68;97149.56;4980109;28;20070;-61
2021/06/03 03:58:18;;;;;;;6.15;4.20;;;;;;;14.30;84.53;97151.41;4976291;28;20050;-60
2021/06/03 04:00:44;;;;;;;6.18;4.32;;;;;;;14.14;85.52;97166.19;4979724;28;20317;-58
2021/06/03 04:03:09;;;;;;;5.50;3.97;;;;;;;14.09;85.61;97158.25;4974954;28;20076;-61
2021/06/03 04:05:35;;;;;;;4.80;3.58;;;;;;;14.18;85.52;97165.44;4979563;28;20058;-61
2021/06/03 04:08:00;;;;;;;12.45;7.32;;;;;;;14.19;85.49;97175.28;4978100;28;20045;-61
2021/06/03 04:10:27;;;;;;;7.80;5.43;;;;;;;14.15;85.23;97176.06;4970747;28;20053;-59
2021/06/03 04:12:52;;;;;;;6.20;4.93;;;;;;;14.23;85.54;97176.13;4980618;28;20051;-59
2021/06/03 04:15:18;;;;;;;5.60;4.13;;;;;;;14.38;85.34;97175.06;4970221;28;20039;-60
2021/06/03 04:17:44;;;;;;;6.45;4.10;;;;;;;14.54;84.55;97178.34;4984012;28;20039;-60
2021/06/03 04:20:14;;;;;;;6.28;4.40;;;;;;;14.49;83.90;97178.69;4977047;28;20185;-60
2021/06/03 04:22:39;;;;;;;5.75;4.18;;;;;;;14.16;85.27;97185.09;4974262;28;20045;-59
2021/06/03 04:25:07;;;;;;;6.70;4.82;;;;;;;13.93;86.56;97186.03;4983035;28;20042;-59
2021/06/03 04:27:33;;;;;;;6.22;5.00;;;;;;;13.85;87.23;97187.13;4985092;28;20042;-58
2021/06/03 04:29:59;;;;;;;6.68;5.32;;;;;;;13.57;88.98;97191.13;4977407;28;20042;-59
2021/06/03 04:32:26;;;;;;;7.00;5.38;;;;;;;13.52;89.36;97191.47;4976119;28;20047;-56
2021/06/03 04:34:52;;;;;;;6.65;4.60;;;;;;;13.64;89.57;97186.88;4981890;28;20399;-60
2021/06/03 04:37:17;;;;;;;8.20;5.93;;;;;;;13.54;89.64;97189.13;4970158;28;20046;-59
2021/06/03 04:39:43;;;;;;;10.20;6.18;;;;;;;13.43;90.77;97188.19;4983211;28;20057;-59
2021/06/03 04:42:08;;;;;;;12.05;7.70;;;;;;;13.34;92.31;97196.75;4977793;28;20046;-59
2021/06/03 04:44:34;;;;;;;8.82;6.90;;;;;;;13.40;91.81;97194.47;4977678;28;20362;-61
2021/06/03 04:46:59;;;;;;;10.55;6.50;;;;;;;13.69;91.54;97194.81;4975855;28;20522;-61
2021/06/03 04:49:24;;;;;;;6.80;5.28;;;;;;;14.18;90.21;97199.28;4976649;28;20054;-60
2021/06/03 04:51:50;;;;;;;6.38;4.40;;;;;;;14.85;87.71;97201.06;4977361;28;20089;-60
2021/06/03 04:54:16;;;;;;;6.95;4.93;;;;;;;15.73;82.90;97189.34;4957624;28;20083;-59
2021/06/03 04:56:41;;;;;;;8.15;4.50;;;;;;;16.69;77.19;97199.84;4963564;28;20073;-59
2021/06/03 04:59:07;;;;;;;5.63;4.05;;;;;;;18.14;71.40;97199.13;4972194;28;20129;-60
2021/06/03 05:01:33;;;;;;;6.88;4.45;;;;;;;18.88;67.30;97189.91;4974616;28;20081;-60
2021/06/03 05:03:58;;;;;;;5.75;4.43;;;;;;;18.82;66.85;97188.78;4976478;28;20054;-60
2021/06/03 05:06:24;;;;;;;6.32;3.75;;;;;;;18.63;68.00;97195.63;4975480;28;20536;-59
2021/06/03 05:08:49;;;;;;;7.13;4.18;;;;;;;19.33;64.89;97197.41;4983901;28;20074;-59
2021/06/03 05:11:14;;;;;;;6.35;3.53;;;;;;;21.85;56.06;97206.38;4977268;28;20129;-59
2021/06/03 05:13:40;;;;;;;8.43;3.83;;;;;;;23.60;51.50;97211.06;4982618;28;20584;-56
2021/06/03 05:16:07;;;;;;;4.80;3.17;;;;;;;23.50;50.42;97210.13;4968092;28;20052;-61
2021/06/03 05:18:32;;;;;;;4.82;3.22;;;;;;;23.47;51.04;97208.22;4973858;28;20440;-60
2021/06/03 05:20:58;;;;;;;5.28;3.50;;;;;;;21.77;55.61;97214.09;4981898;28;20164;-60
2021/06/03 05:23:23;;;;;;;4.38;2.83;;;;;;;22.59;54.43;97215.56;4969193;28;20779;-60
2021/06/03 05:25:49;;;;;;;7.43;3.85;;;;;;;22.59;52.46;97213.56;4982132;28;20042;-60
2021/06/03 05:28:15;;;;;;;6.85;3.50;;;;;;;23.83;50.29;97213.63;4975948;28;20133;-61
2021/06/03 05:30:41;;;;;;;3.55;2.72;;;;;;;25.99;44.31;97209.50;4970117;28;20039;-61
2021/06/03 05:33:06;;;;;;;6.13;3.10;;;;;;;27.68;39.73;97213.19;4956244;28;20472;-60
2021/06/03 05:35:32;;;;;;;4.78;3.22;;;;;;;25.85;43.10;97221.22;4973453;28;20065;-60
2021/06/03 05:37:58;;;;;;;7.90;3.08;;;;;;;26.79;39.98;97222.09;4981880;28;20070;-59
2021/06/03 05:40:25;;;;;;;5.22;2.95;;;;;;;25.06;44.64;97227.50;4976213;28;20314;-60
2021/06/03 05:42:53;;;;;;;5.40;3.15;;;;;;;24.63;45.04;97225.31;4974754;28;20062;-61
2021/06/03 05:45:19;;;;;;;7.80;3.30;;;;;;;23.77;47.77;97231.34;4968121;28;20039;-60
2021/06/03 05:47:45;;;;;;;4.40;3.50;;;;;;;23.34;48.90;97240.91;4962690;28;20389;-59
2021/06/03 05:50:12;;;;;;;4.53;3.20;;;;;;;22.22;52.14;97245.44;4974073;28;20061;-60
2021/06/03 05:52:40;;;;;;;8.23;3.40;;;;;;;22.14;52.71;97247.59;4973343;28;20088;-59
2021/06/03 05:55:07;;;;;;;4.85;3.38;;;;;;;21.88;52.79;97240.97;4971399;28;20042;-61
2021/06/03 05:57:33;;;;;;;7.72;3.90;;;;;;;21.63;53.74;97247.81;4976551;28;20050;-60
2021/06/03 05:59:58;;;;;;;5.30;3.50;;;;;;;21.57;54.07;97241.97;4975091;28;20074;-61
2021/06/03 06:02:32;;;;;;;6.25;3.78;;;;;;;20.56;57.14;97244.75;4970883;28;20049;-59
2021/06/03 06:07:41;;;;;;;5.93;3.40;;;;;;;20.71;57.48;97262.09;4980055;28;20092;-60
2021/06/03 06:10:08;;;;;;;6.82;3.60;;;;;;;20.87;56.85;97255.84;4970124;28;20050;-61
2021/06/03 06:12:33;;;;;;;5.18;3.42;;;;;;;21.35;54.80;97258.22;4977909;28;20090;-62
2021/06/03 06:14:59;;;;;;;5.75;3.65;;;;;;;21.50;54.84;97246.84;4970933;28;20043;-61
2021/06/03 06:17:24;;;;;;;5.30;3.38;;;;;;;21.67;54.36;97259.69;4974318;28;20070;-62
2021/06/03 06:19:50;;;;;;;7.35;3.33;;;;;;;21.69;53.77;97260.03;4980844;28;20064;-60
2021/06/03 06:22:16;;;;;;;5.18;3.50;;;;;;;21.50;53.68;97258.81;4960035;28;20035;-60
2021/06/03 06:24:44;;;;;;;5.45;3.80;;;;;;;21.55;54.20;97263.91;4969750;28;20042;-62
2021/06/03 06:27:09;;;;;;;6.78;3.50;;;;;;;22.39;51.97;97269.44;4965760;28;20043;-63
2021/06/03 06:29:35;;;;;;;5.68;3.10;;;;;;;22.58;51.49;97267.84;4972053;28;20100;-60
2021/06/03 06:32:00;;;;;;;8.20;3.40;;;;;;;23.34;49.38;97269.66;4980559;28;20105;-59
2021/06/03 06:34:26;;;;;;;5.70;3.40;;;;;;;22.87;49.98;97270.75;4976427;28;20038;-61
2021/06/03 06:36:51;;;;;;;7.13;3.00;;;;;;;23.68;48.14;97271.16;4981729;28;20089;-62
2021/06/03 06:39:17;;;;;;;13.27;3.67;;;;;;;24.49;46.90;97271.28;4967953;28;20049;-59
2021/06/03 06:41:44;;;;;;;4.03;2.78;;;;;;;24.34;47.28;97271.72;4979274;28;20057;-61
2021/06/03 06:44:09;;;;;;;3.90;2.80;;;;;;;25.18;44.58;97263.13;4967877;28;20051;-60
2021/06/03 06:46:35;;;;;;;8.88;3.78;;;;;;;26.32;42.71;97259.59;4981329;28;20050;-60
2021/06/03 06:49:00;;;;;;;6.60;3.00;;;;;;;26.17;41.96;97262.19;4979605;28;20057;-60
2021/06/03 06:51:26;;;;;;;5.40;2.78;;;;;;;25.38;43.31;97260.09;4966566;28;20050;-59
2021/06/03 06:53:51;;;;;;;4.53;2.58;;;;;;;25.52;43.72;97266.47;4961540;28;20035;-60
2021/06/03 06:56:17;;;;;;;7.20;3.00;;;;;;;25.66;42.97;97263.16;4967991;28;20624;-59
2021/06/03 06:58:42;;;;;;;5.00;3.05;;;;;;;25.22;43.94;97267.84;4977099;28;20039;-60
2021/06/03 07:01:07;;;;;;;10.50;3.17;;;;;;;24.23;45.51;97263.63;4973116;28;20403;-61
2021/06/03 07:03:33;;;;;;;6.15;2.90;;;;;;;24.06;46.31;97259.34;4979143;28;20054;-60
2021/06/03 07:05:59;;;;;;;6.18;2.75;;;;;;;23.91;46.87;97277.75;4973414;28;20061;-60
2021/06/03 07:08:24;;;;;;;5.72;2.53;;;;;;;23.33;48.19;97273.66;4977127;28;20462;-59
2021/06/03 07:10:50;;;;;;;5.28;2.90;;;;;;;22.82;49.82;97276.06;4981412;28;20535;-60
2021/06/03 07:13:16;;;;;;;5.40;2.83;;;;;;;22.77;50.16;97271.00;4974418;28;20156;-56
2021/06/03 07:15:42;;;;;;;5.65;3.55;;;;;;;22.46;51.28;97271.28;4971593;28;20046;-60
2021/06/03 07:18:07;;;;;;;8.80;3.75;;;;;;;21.95;52.41;97268.72;4976562;28;20526;-60
2021/06/03 07:20:34;;;;;;;6.43;3.65;;;;;;;;;;4985820;28;20038;-60
2021/06/03 07:23:03;;;;;;;5.57;3.17;;;;;;;21.43;54.64;97269.25;4983831;28;20039;-59
2021/06/03 07:25:29;;;;;;;5.28;3.65;;;;;;;21.01;54.75;97280.69;4986912;28;20045;-61
2021/06/03 07:27:54;;;;;;;6.70;3.30;;;;;;;21.26;55.36;97276.72;4981038;28;20046;-61
2021/06/03 07:30:22;;;;;;;9.40;4.05;;;;;;;21.25;55.59;97275.94;4975068;28;20038;-61
2021/06/03 07:32:48;;;;;;;5.25;3.80;;;;;;;21.33;56.28;97285.72;4974821;28;20050;-61
2021/06/03 07:35:15;;;;;;;6.68;3.72;;;;;;;21.12;56.71;97284.09;4975546;28;20043;-60
2021/06/03 07:37:45;;;;;;;6.88;3.45;;;;;;;20.91;58.25;97285.22;4984440;28;20043;-59
2021/06/03 07:40:13;;;;;;;4.35;3.00;;;;;;;20.92;58.04;97288.78;4971925;28;20452;-58
2021/06/03 07:42:39;;;;;;;4.47;2.75;;;;;;;21.01;57.21;97291.81;4978115;28;20042;-61
2021/06/03 07:45:07;;;;;;;6.68;3.45;;;;;;;20.87;57.09;97283.69;4965217;28;20055;-60
2021/06/03 07:47:34;;;;;;;6.95;3.72;;;;;;;20.82;58.21;97290.53;4965356;28;20137;-60
2021/06/03 07:50:00;;;;;;;7.53;3.85;;;;;;;21.04;57.12;97287.44;4975707;28;20057;-59
2021/06/03 07:52:25;;;;;;;8.20;3.33;;;;;;;21.00;57.03;97281.91;4977984;28;20042;-61
2021/06/03 07:54:51;;;;;;;7.05;3.63;;;;;;;20.11;60.02;97284.69;4981834;28;20038;-61
2021/06/03 07:57:16;;;;;;;5.63;3.38;;;;;;;20.51;58.76;97279.44;4972278;28;20404;-60
2021/06/03 07:59:41;;;;;;;7.25;3.25;;;;;;;20.77;58.12;97289.00;4971488;28;20058;-59
2021/06/03 08:02:07;;;;;;;5.25;3.13;;;;;;;20.84;57.73;97288.13;4959248;28;20050;-63
2021/06/03 08:04:32;;;;;;;8.20;3.72;;;;;;;21.04;57.08;97284.66;4977117;28;20054;-62
2021/06/03 08:06:58;;;;;;;6.50;3.97;;;;;;;21.05;56.65;97273.09;4981893;28;20211;-61
2021/06/03 08:09:23;;;;;;;12.20;5.20;;;;;;;21.13;56.96;97277.31;4971972;28;20512;-61
2021/06/03 08:11:48;;;;;;;10.30;4.80;;;;;;;21.02;57.96;97278.72;4982341;28;20050;-60
2021/06/03 08:14:14;;;;;;;5.53;3.33;;;;;;;21.05;57.57;97278.66;4969923;28;20051;-60
2021/06/03 08:16:39;;;;;;;7.22;3.20;;;;;;;21.39;55.62;97278.47;4983188;28;20034;-61
2021/06/03 08:19:05;;;;;;;10.45;4.68;;;;;;;21.63;54.57;97261.75;4976058;28;20041;-59
2021/06/03 08:21:31;;;;;;;19.38;6.32;;;;;;;21.68;54.03;97271.63;4979876;28;20046;-58
2021/06/03 08:23:56;;;;;;;5.55;3.17;;;;;;;21.88;54.54;97266.84;4970791;28;20149;-60
2021/06/03 08:26:24;;;;;;;6.97;3.45;;;;;;;22.31;52.71;97262.44;4975079;28;20278;-60
2021/06/03 08:28:50;;;;;;;6.43;4.00;;;;;;;22.13;53.63;97280.31;4974093;28;20423;-60
2021/06/03 08:31:15;;;;;;;6.55;3.30;;;;;;;22.09;53.93;97273.22;4978545;28;20043;-58
2021/06/03 08:33:41;;;;;;;4.95;3.20;;;;;;;22.20;53.85;97275.78;4982447;28;20038;-61
2021/06/03 08:36:06;;;;;;;6.45;3.08;;;;;;;22.26;53.68;97271.28;4970088;28;20045;-61
2021/06/03 08:38:32;;;;;;;7.85;3.78;;;;;;;22.56;52.77;97273.03;4982219;28;20129;-61
2021/06/03 08:40:59;;;;;;;4.72;3.00;;;;;;;22.50;53.28;97280.34;4979807;28;20092;-60
2021/06/03 08:43:27;;;;;;;5.63;3.38;;;;;;;22.65;53.12;97278.84;4967768;28;20504;-61
2021/06/03 08:45:54;;;;;;;5.65;2.90;;;;;;;22.43;54.08;97278.50;4981846;28;20429;-61
2021/06/03 08:48:20;;;;;;;4.80;2.55;;;;;;;22.79;53.99;97272.13;4966356;28;20039;-61
2021/06/03 08:50:48;;;;;;;5.18;2.97;;;;;;;23.36;52.33;97278.38;4964037;28;20081;-61
2021/06/03 08:53:14;;;;;;;4.50;2.90;;;;;;;23.16;52.88;97280.50;4958369;28;20035;-62
2021/06/03 08:58:26;;;;;;;4.18;2.67;;;;;;;23.08;52.83;97279.84;4968019;28;20050;-61
2021/06/03 09:00:53;;;;;;;5.63;3.25;;;;;;;23.00;53.31;97284.03;4979540;28;20043;-62
2021/06/03 09:03:19;;;;;;;5.32;2.42;;;;;;;23.41;52.78;97282.66;4979360;28;20045;-62
2021/06/03 09:05:45;;;;;;;4.35;2.85;;;;;;;24.11;51.29;97266.41;4987288;28;20134;-58
2021/06/03 09:08:26;;;;;;;4.88;2.30;;;;;;;24.55;50.12;97275.94;4973471;28;20476;-59
2021/06/03 09:11:24;;;;;;;3.72;2.50;;;;;;;24.39;50.91;97273.19;4979042;28;22171;-60
2021/06/03 09:13:52;;;;;;;6.07;2.38;;;;;;;24.48;50.20;97278.13;4969820;28;20065;-61
2021/06/03 09:16:24;;;;;;;6.68;3.53;;;;;;;25.24;47.77;97274.59;4969487;28;20129;-60
2021/06/03 09:18:53;;;;;;;6.28;3.00;;;;;;;24.79;49.36;97279.22;4982555;28;20234;-60
2021/06/03 09:21:21;;;;;;;;;;;;;;;25.31;48.37;97271.56;4974016;28;20077;-60
2021/06/03 09:23:59;;;;;;;6.95;2.70;;;;;;;26.22;45.97;97272.03;4975074;28;19918;-61
2021/06/03 09:26:26;;;;;;;3.97;2.50;;;;;;;26.31;46.42;97277.72;4971926;28;20508;-62
2021/06/03 09:28:54;;;;;;;6.97;2.67;;;;;;;26.15;44.80;97280.72;4975479;28;20077;-61
2021/06/03 09:31:21;;;;;;;3.97;2.20;;;;;;;26.38;44.21;97277.44;4967728;28;20515;-61
2021/06/03 09:33:57;;;;;;;5.55;2.60;;;;;;;26.28;45.88;97273.00;4962222;28;20074;-61
2021/06/03 09:36:27;;;;;;;3.53;2.00;;;;;;;26.60;45.65;97271.78;4967241;28;20836;-61
2021/06/03 09:38:54;;;;;;;4.57;2.55;;;;;;;26.80;44.38;97263.00;4968801;28;20522;-61
2021/06/03 09:41:21;;;;;;;4.60;2.33;;;;;;;26.45;45.39;97279.19;4959091;28;20125;-63
2021/06/03 09:43:46;;;;;;;3.95;2.45;;;;;;;26.16;45.58;97274.63;4980656;28;20046;-61
2021/06/03 09:46:16;;;;;;;4.68;2.35;;;;;;;25.59;47.96;97279.44;4974861;28;20042;-61
2021/06/03 09:48:47;;;;;;;3.70;2.47;;;;;;;25.96;46.89;97274.97;4973153;28;20069;-58
2021/06/03 09:51:27;;;;;;;4.38;2.53;;;;;;;26.22;45.44;97260.81;4975122;28;20712;-60
2021/06/03 09:54:02;;;;;;;5.10;3.55;;;;;;;26.16;44.12;97271.06;4974984;28;20650;-60
2021/06/03 09:56:31;;;;;;;6.97;4.03;;;;;;;25.82;44.50;97264.22;4970059;28;20042;-59
2021/06/03 09:58:59;;;;;;;5.15;3.20;;;;;;;25.56;46.27;97267.91;4979195;28;20427;-61
2021/06/03 10:01:41;;;;;;;3.90;3.33;;;;;;;26.41;44.85;97262.47;4967638;28;20395;-60
2021/06/03 10:04:08;;;;;;;4.93;3.13;;;;;;;26.98;44.33;97259.47;4975039;28;20468;-62
2021/06/03 10:06:51;;;;;;;9.20;3.85;;;;;;;28.45;40.35;97260.03;4981311;28;20056;-60
2021/06/03 10:09:17;;;;;;;4.65;2.97;;;;;;;28.87;39.18;97256.50;4976147;28;20038;-61
2021/06/03 10:11:48;;;;;;;5.90;2.20;;;;;;;27.19;42.68;97257.03;4973054;28;20635;-60
2021/06/03 10:14:16;;;;;;;3.22;1.70;;;;;;;27.32;42.17;97259.75;4987054;28;20026;-62
2021/06/03 10:16:43;;;;;;;3.45;1.80;;;;;;;28.11;38.59;97250.72;4990129;28;20500;-61
2021/06/03 10:19:23;;;;;;;5.95;1.65;;;;;;;28.27;38.87;97250.41;4971732;28;20042;-64
2021/06/03 10:22:20;;;;;;;3.15;1.65;;;;;;;27.32;39.85;97251.31;4973965;28;20057;-61
2021/06/03 10:24:53;;;;;;;3.08;1.55;;;;;;;27.49;39.56;97252.59;4976909;28;20096;-62
2021/06/03 10:27:21;;;;;;;2.00;1.40;;;;;;;27.87;38.46;97242.13;4967142;28;20038;-61
2021/06/03 10:29:48;;;;;;;2.83;1.50;;;;;;;28.53;36.87;97244.38;4974566;28;20046;-61
2021/06/03 10:32:15;;;;;;;3.95;1.58;;;;;;;28.22;36.73;97245.41;4969467;28;20050;-61
2021/06/03 10:34:42;;;;;;;5.00;2.35;;;;;;;28.01;38.16;97233.84;4972491;28;20045;-62
2021/06/03 10:37:08;;;;;;;2.72;1.75;;;;;;;28.39;37.49;97238.16;4974908;28;20070;-62
2021/06/03 10:39:33;;;;;;;3.20;1.60;;;;;;;28.20;36.67;97237.44;4973244;28;20073;-62
2021/06/03 10:42:00;;;;;;;3.67;2.10;;;;;;;27.39;39.94;97229.31;4977401;28;20042;-58
2021/06/03 10:44:27;;;;;;;5.65;2.20;;;;;;;27.66;40.46;97236.19;4964026;28;20054;-61
2021/06/03 10:46:52;;;;;;;2.50;1.50;;;;;;;27.62;38.63;97227.91;4972455;28;20066;-59
2021/06/03 10:49:19;;;;;;;7.75;3.20;;;;;;;27.92;40.33;97235.91;4966407;28;20128;-62
2021/06/03 10:51:45;;;;;;;7.88;2.65;;;;;;;27.53;41.33;97235.56;4977341;28;20042;-61
2021/06/03 10:54:10;;;;;;;5.88;2.38;;;;;;;27.90;40.24;97235.56;4977323;28;20100;-62
2021/06/03 10:56:36;;;;;;;5.38;2.50;;;;;;;27.93;39.84;97235.44;4971700;28;20112;-62
2021/06/03 10:59:03;;;;;;;2.58;1.70;;;;;;;27.65;40.46;97231.81;4964821;28;20038;-60
2021/06/03 11:01:31;;;;;;;4.93;1.80;;;;;;;27.60;39.78;97232.44;4964236;28;20042;-59
2021/06/03 11:04:02;;;;;;;2.10;1.23;;;;;;;26.60;39.46;97224.03;4967168;28;20094;-61
2021/06/03 11:06:30;;;;;;;5.38;2.30;;;;;;;26.86;41.15;97218.22;4980086;28;20054;-62
2021/06/03 11:08:56;;;;;;;5.82;2.30;;;;;;;26.60;41.40;97218.41;4985848;28;20504;-60
2021/06/03 11:11:34;;;;;;;6.72;1.58;;;;;;;26.97;39.88;97210.13;4979559;28;20338;-61
2021/06/03 11:14:08;;;;;;;3.55;1.33;;;;;;;27.79;38.59;97211.47;4983049;28;20038;-59
2021/06/03 11:16:34;;;;;;;3.65;1.48;;;;;;;27.30;38.47;97211.63;4983979;28;20097;-59
2021/06/03 11:19:02;;;;;;;2.05;1.30;;;;;;;27.43;38.17;97217.91;4984045;28;20038;-61
2021/06/03 11:21:30;;;;;;;2.22;1.45;;;;;;;27.52;37.85;97203.84;4972594;28;20047;-59
2021/06/03 11:23:56;;;;;;;4.20;1.70;;;;;;;27.77;37.25;97205.53;4980753;28;20042;-60
2021/06/03 11:26:49;;;;;;;2.67;1.35;;;;;;;27.21;38.61;97207.53;4968681;28;20070;-61
2021/06/03 11:29:16;;;;;;;3.83;1.38;;;;;;;27.62;37.28;97202.59;4979071;28;20361;-58
2021/06/03 11:32:06;;;;;;;3.47;1.55;;;;;;;27.53;38.19;97204.59;4981949;28;20049;-60
2021/06/03 11:34:45;;;;;;;4.22;2.45;;;;;;;27.49;39.85;97201.19;4976295;28;20042;-61
2021/06/03 11:37:24;;;;;;;7.95;2.00;;;;;;;26.90;40.94;97196.38;4977689;28;20066;-59
2021/06/03 11:40:10;;;;;;;4.53;1.83;;;;;;;26.61;40.79;97199.56;4981909;28;20084;-60
2021/06/03 11:42:39;;;;;;;9.05;6.20;;;;;;;26.56;41.16;97189.69;4974746;28;20105;-58